sensor_id;sensor_type;location;lat;lon;timestamp;temperature;humidity
19037;DHT22;9651;49.138;8.900;2022-11-21T00:03:55;6.50;99.90
19037;DHT22;9651;49.138;8.900;2022-11-21T00:07:57;6.50;99.90
19037;DHT22;9651;49.138;8.900;2022-11-21T00:12:00;6.50;99.90
19037;DHT22;9651;49.138;8.900;2022-11-21T00:16:03;6.50;99.90
19037;DHT22;9651;49.138;8.900;2022-11-21T00:20:06;6.70;99.90
19037;DHT22;9651;49.138;8.900;2022-11-21T00:24:09;6.60;99.90
19037;DHT22;9651;49.138;8.900;2022-11-21T00:28:12;6.60;99.90
19037;DHT22;9651;49.138;8.900;2022-11-21T00:32:14;6.60;99.90
19037;DHT22;9651;49.138;8.900;2022-11-21T00:36:16;6.50;99.90
19037;DHT22;9651;49.138;8.900;2022-11-21T00:40:18;6.50;99.90
19037;DHT22;9651;49.138;8.900;2022-11-21T00:44:21;6.50;99.90
19037;DHT22;9651;49.138;8.900;2022-11-21T00:48:23;6.40;99.90
19037;DHT22;9651;49.138;8.900;2022-11-21T00:52:24;6.40;99.90
19037;DHT22;9651;49.138;8.900;2022-11-21T00:56:26;6.40;99.90
19037;DHT22;9651;49.138;8.900;2022-11-21T01:00:29;6.40;99.90
19037;DHT22;9651;49.138;8.900;2022-11-21T01:04:32;6.30;99.90
19037;DHT22;9651;49.138;8.900;2022-11-21T01:08:35;6.30;99.90
19037;DHT22;9651;49.138;8.900;2022-11-21T01:12:37;6.30;99.90
19037;DHT22;9651;49.138;8.900;2022-11-21T01:16:41;6.20;99.90
19037;DHT22;9651;49.138;8.900;2022-11-21T01:20:42;6.20;99.90
19037;DHT22;9651;49.138;8.900;2022-11-21T01:24:45;6.20;99.90
19037;DHT22;9651;49.138;8.900;2022-11-21T01:28:47;6.20;99.90
19037;DHT22;9651;49.138;8.900;2022-11-21T01:32:51;6.20;99.90
19037;DHT22;9651;49.138;8.900;2022-11-21T01:36:53;6.10;99.90
19037;DHT22;9651;49.138;8.900;2022-11-21T01:40:55;6.10;99.90
19037;DHT22;9651;49.138;8.900;2022-11-21T01:44:56;6.10;99.90
19037;DHT22;9651;49.138;8.900;2022-11-21T01:49:03;6.10;99.90
19037;DHT22;9651;49.138;8.900;2022-11-21T01:53:05;6.10;99.90
19037;DHT22;9651;49.138;8.900;2022-11-21T01:57:10;6.20;99.90
19037;DHT22;9651;49.138;8.900;2022-11-21T02:01:13;6.30;99.90
19037;DHT22;9651;49.138;8.900;2022-11-21T02:05:19;6.20;99.90
19037;DHT22;9651;49.138;8.900;2022-11-21T02:09:23;6.30;99.90
19037;DHT22;9651;49.138;8.900;2022-11-21T02:13:26;6.20;99.90
19037;DHT22;9651;49.138;8.900;2022-11-21T02:17:28;6.20;99.90
19037;DHT22;9651;49.138;8.900;2022-11-21T02:21:40;6.20;99.90
19037;DHT22;9651;49.138;8.900;2022-11-21T02:25:47;6.20;99.90
19037;DHT22;9651;49.138;8.900;2022-11-21T02:29:50;6.30;99.90
19037;DHT22;9651;49.138;8.900;2022-11-21T02:33:52;6.30;99.90
19037;DHT22;9651;49.138;8.900;2022-11-21T02:37:58;6.30;99.90
19037;DHT22;9651;49.138;8.900;2022-11-21T02:42:05;6.30;99.90
19037;DHT22;9651;49.138;8.900;2022-11-21T02:46:10;6.30;99.90
19037;DHT22;9651;49.138;8.900;2022-11-21T02:50:14;6.30;99.90
19037;DHT22;9651;49.138;8.900;2022-11-21T02:54:19;6.30;99.90
19037;DHT22;9651;49.138;8.900;2022-11-21T02:58:22;6.30;99.90
19037;DHT22;9651;49.138;8.900;2022-11-21T03:02:24;6.30;99.90
19037;DHT22;9651;49.138;8.900;2022-11-21T03:06:26;6.30;99.90
19037;DHT22;9651;49.138;8.900;2022-11-21T03:10:28;6.30;99.90
19037;DHT22;9651;49.138;8.900;2022-11-21T03:14:31;6.30;99.90
19037;DHT22;9651;49.138;8.900;2022-11-21T03:18:33;6.40;99.90
19037;DHT22;9651;49.138;8.900;2022-11-21T03:22:35;6.30;99.90
19037;DHT22;9651;49.138;8.900;2022-11-21T03:26:37;6.30;99.90
19037;DHT22;9651;49.138;8.900;2022-11-21T03:30:40;6.30;99.90
19037;DHT22;9651;49.138;8.900;2022-11-21T03:34:42;6.40;99.90
19037;DHT22;9651;49.138;8.900;2022-11-21T03:38:43;6.30;99.90
19037;DHT22;9651;49.138;8.900;2022-11-21T03:42:45;6.30;99.90
19037;DHT22;9651;49.138;8.900;2022-11-21T03:46:48;6.30;99.90
19037;DHT22;9651;49.138;8.900;2022-11-21T03:50:50;6.30;99.90
19037;DHT22;9651;49.138;8.900;2022-11-21T03:54:52;6.30;99.90
19037;DHT22;9651;49.138;8.900;2022-11-21T03:58:54;6.30;99.90
19037;DHT22;9651;49.138;8.900;2022-11-21T04:02:57;6.30;99.90
19037;DHT22;9651;49.138;8.900;2022-11-21T04:06:59;6.40;99.90
19037;DHT22;9651;49.138;8.900;2022-11-21T04:11:01;6.40;99.90
19037;DHT22;9651;49.138;8.900;2022-11-21T04:15:04;6.40;99.90
19037;DHT22;9651;49.138;8.900;2022-11-21T04:19:07;6.40;99.90
19037;DHT22;9651;49.138;8.900;2022-11-21T04:23:09;6.50;99.90
19037;DHT22;9651;49.138;8.900;2022-11-21T04:27:11;6.50;99.90
19037;DHT22;9651;49.138;8.900;2022-11-21T04:31:13;6.50;99.90
19037;DHT22;9651;49.138;8.900;2022-11-21T04:35:16;6.50;99.90
19037;DHT22;9651;49.138;8.900;2022-11-21T04:39:18;6.50;99.90
19037;DHT22;9651;49.138;8.900;2022-11-21T04:43:20;6.50;99.90
19037;DHT22;9651;49.138;8.900;2022-11-21T04:47:21;6.50;99.90
19037;DHT22;9651;49.138;8.900;2022-11-21T04:51:25;6.50;99.90
19037;DHT22;9651;49.138;8.900;2022-11-21T04:55:29;6.50;99.90
19037;DHT22;9651;49.138;8.900;2022-11-21T04:59:31;6.50;99.90
19037;DHT22;9651;49.138;8.900;2022-11-21T05:03:34;6.50;99.90
19037;DHT22;9651;49.138;8.900;2022-11-21T05:07:37;6.50;99.90
19037;DHT22;9651;49.138;8.900;2022-11-21T05:11:39;6.50;99.90
19037;DHT22;9651;49.138;8.900;2022-11-21T05:15:59;6.50;99.90
19037;DHT22;9651;49.138;8.900;2022-11-21T05:20:01;6.50;99.90
19037;DHT22;9651;49.138;8.900;2022-11-21T05:24:04;6.50;99.90
19037;DHT22;9651;49.138;8.900;2022-11-21T05:28:06;6.50;99.90
19037;DHT22;9651;49.138;8.900;2022-11-21T05:32:08;6.60;99.90
19037;DHT22;9651;49.138;8.900;2022-11-21T05:36:10;6.60;99.90
19037;DHT22;9651;49.138;8.900;2022-11-21T05:40:14;6.60;99.90
19037;DHT22;9651;49.138;8.900;2022-11-21T05:44:16;6.50;99.90
19037;DHT22;9651;49.138;8.900;2022-11-21T05:48:17;6.50;99.90
19037;DHT22;9651;49.138;8.900;2022-11-21T05:52:19;6.60;99.90
19037;DHT22;9651;49.138;8.900;2022-11-21T05:56:22;6.50;99.90
19037;DHT22;9651;49.138;8.900;2022-11-21T06:00:24;6.50;99.90
19037;DHT22;9651;49.138;8.900;2022-11-21T06:04:26;6.50;99.90
19037;DHT22;9651;49.138;8.900;2022-11-21T06:08:30;6.50;99.90
19037;DHT22;9651;49.138;8.900;2022-11-21T06:12:33;6.60;99.90
19037;DHT22;9651;49.138;8.900;2022-11-21T06:16:35;6.60;99.90
19037;DHT22;9651;49.138;8.900;2022-11-21T06:20:37;6.50;99.90
19037;DHT22;9651;49.138;8.900;2022-11-21T06:24:39;6.50;99.90
19037;DHT22;9651;49.138;8.900;2022-11-21T06:28:43;6.50;99.90
19037;DHT22;9651;49.138;8.900;2022-11-21T06:32:45;6.40;99.90
19037;DHT22;9651;49.138;8.900;2022-11-21T06:36:47;6.40;99.90
19037;DHT22;9651;49.138;8.900;2022-11-21T06:40:48;6.40;99.90
19037;DHT22;9651;49.138;8.900;2022-11-21T06:44:52;6.50;99.90
19037;DHT22;9651;49.138;8.900;2022-11-21T06:48:53;6.50;99.90
19037;DHT22;9651;49.138;8.900;2022-11-21T06:52:56;6.50;99.90
19037;DHT22;9651;49.138;8.900;2022-11-21T06:56:58;6.50;99.90
19037;DHT22;9651;49.138;8.900;2022-11-21T07:01:04;6.50;99.90
19037;DHT22;9651;49.138;8.900;2022-11-21T07:05:06;6.60;99.90
19037;DHT22;9651;49.138;8.900;2022-11-21T07:09:08;6.60;99.90
19037;DHT22;9651;49.138;8.900;2022-11-21T07:13:10;6.60;99.90
19037;DHT22;9651;49.138;8.900;2022-11-21T07:17:25;6.70;99.90
19037;DHT22;9651;49.138;8.900;2022-11-21T07:21:27;6.70;99.90
19037;DHT22;9651;49.138;8.900;2022-11-21T07:25:29;6.70;99.90
19037;DHT22;9651;49.138;8.900;2022-11-21T07:29:31;6.70;99.90
19037;DHT22;9651;49.138;8.900;2022-11-21T07:33:34;6.70;99.90
19037;DHT22;9651;49.138;8.900;2022-11-21T07:37:37;6.60;99.90
19037;DHT22;9651;49.138;8.900;2022-11-21T07:41:39;6.60;99.90
19037;DHT22;9651;49.138;8.900;2022-11-21T07:45:41;6.60;99.90
19037;DHT22;9651;49.138;8.900;2022-11-21T07:49:45;6.50;99.90
19037;DHT22;9651;49.138;8.900;2022-11-21T07:53:46;6.50;99.90
19037;DHT22;9651;49.138;8.900;2022-11-21T07:57:56;6.60;99.90
19037;DHT22;9651;49.138;8.900;2022-11-21T08:01:58;6.60;99.90
19037;DHT22;9651;49.138;8.900;2022-11-21T08:06:03;6.70;99.90
19037;DHT22;9651;49.138;8.900;2022-11-21T08:10:05;6.80;99.90
19037;DHT22;9651;49.138;8.900;2022-11-21T08:14:07;6.90;99.90
19037;DHT22;9651;49.138;8.900;2022-11-21T08:18:10;6.90;99.90
19037;DHT22;9651;49.138;8.900;2022-11-21T08:22:13;7.00;99.90
19037;DHT22;9651;49.138;8.900;2022-11-21T08:26:15;7.00;99.90
19037;DHT22;9651;49.138;8.900;2022-11-21T08:30:17;7.10;99.90
19037;DHT22;9651;49.138;8.900;2022-11-21T08:34:19;7.30;99.90
19037;DHT22;9651;49.138;8.900;2022-11-21T08:38:22;7.60;99.90
19037;DHT22;9651;49.138;8.900;2022-11-21T08:42:24;7.90;99.90
19037;DHT22;9651;49.138;8.900;2022-11-21T08:46:26;8.50;99.90
19037;DHT22;9651;49.138;8.900;2022-11-21T08:50:29;9.20;99.90
19037;DHT22;9651;49.138;8.900;2022-11-21T08:54:33;9.60;99.90
19037;DHT22;9651;49.138;8.900;2022-11-21T08:58:35;10.10;99.90
19037;DHT22;9651;49.138;8.900;2022-11-21T09:02:37;10.20;99.90
19037;DHT22;9651;49.138;8.900;2022-11-21T09:06:39;10.30;99.90
19037;DHT22;9651;49.138;8.900;2022-11-21T09:10:42;10.50;99.90
19037;DHT22;9651;49.138;8.900;2022-11-21T09:14:44;10.50;99.90
19037;DHT22;9651;49.138;8.900;2022-11-21T09:19:03;10.70;99.90
19037;DHT22;9651;49.138;8.900;2022-11-21T09:23:06;10.60;99.90
19037;DHT22;9651;49.138;8.900;2022-11-21T09:27:09;11.00;99.90
19037;DHT22;9651;49.138;8.900;2022-11-21T09:31:11;11.40;99.90
19037;DHT22;9651;49.138;8.900;2022-11-21T09:35:13;11.30;99.90
19037;DHT22;9651;49.138;8.900;2022-11-21T09:39:15;11.10;99.90
19037;DHT22;9651;49.138;8.900;2022-11-21T09:43:39;11.30;99.90
19037;DHT22;9651;49.138;8.900;2022-11-21T09:47:46;11.00;99.90
19037;DHT22;9651;49.138;8.900;2022-11-21T09:51:49;11.10;99.90
19037;DHT22;9651;49.138;8.900;2022-11-21T09:55:55;10.90;99.90
19037;DHT22;9651;49.138;8.900;2022-11-21T10:00:02;10.60;99.90
19037;DHT22;9651;49.138;8.900;2022-11-21T10:04:14;10.80;99.90
19037;DHT22;9651;49.138;8.900;2022-11-21T10:08:24;11.00;99.90
19037;DHT22;9651;49.138;8.900;2022-11-21T10:12:34;11.00;99.90
19037;DHT22;9651;49.138;8.900;2022-11-21T10:16:46;11.80;99.90
19037;DHT22;9651;49.138;8.900;2022-11-21T10:20:54;12.60;99.90
19037;DHT22;9651;49.138;8.900;2022-11-21T10:25:07;13.50;99.90
19037;DHT22;9651;49.138;8.900;2022-11-21T10:29:18;13.80;99.90
19037;DHT22;9651;49.138;8.900;2022-11-21T10:33:26;14.00;99.90
19037;DHT22;9651;49.138;8.900;2022-11-21T10:37:35;13.40;99.90
19037;DHT22;9651;49.138;8.900;2022-11-21T10:41:41;13.30;99.90
19037;DHT22;9651;49.138;8.900;2022-11-21T10:45:45;13.40;99.90
19037;DHT22;9651;49.138;8.900;2022-11-21T10:49:48;13.10;99.90
19037;DHT22;9651;49.138;8.900;2022-11-21T10:54:05;13.00;99.90
19037;DHT22;9651;49.138;8.900;2022-11-21T10:58:34;12.50;99.90
19037;DHT22;9651;49.138;8.900;2022-11-21T11:02:36;12.50;99.90
19037;DHT22;9651;49.138;8.900;2022-11-21T11:06:41;12.90;99.90
19037;DHT22;9651;49.138;8.900;2022-11-21T11:10:45;13.20;99.90
19037;DHT22;9651;49.138;8.900;2022-11-21T11:15:01;13.10;99.90
19037;DHT22;9651;49.138;8.900;2022-11-21T11:19:05;13.00;99.90
19037;DHT22;9651;49.138;8.900;2022-11-21T11:23:24;13.20;99.90
19037;DHT22;9651;49.138;8.900;2022-11-21T11:27:27;13.10;99.90
19037;DHT22;9651;49.138;8.900;2022-11-21T11:31:39;13.10;99.90
19037;DHT22;9651;49.138;8.900;2022-11-21T11:35:41;12.70;99.90
19037;DHT22;9651;49.138;8.900;2022-11-21T11:39:53;12.10;99.90
19037;DHT22;9651;49.138;8.900;2022-11-21T11:44:02;11.80;99.90
19037;DHT22;9651;49.138;8.900;2022-11-21T11:48:28;11.60;99.90
19037;DHT22;9651;49.138;8.900;2022-11-21T11:52:34;11.30;99.90
19037;DHT22;9651;49.138;8.900;2022-11-21T11:56:41;11.20;99.90
19037;DHT22;9651;49.138;8.900;2022-11-21T12:00:47;11.00;99.90
19037;DHT22;9651;49.138;8.900;2022-11-21T12:04:54;10.80;99.90
19037;DHT22;9651;49.138;8.900;2022-11-21T12:09:01;10.90;99.90
19037;DHT22;9651;49.138;8.900;2022-11-21T12:13:10;11.20;99.90
19037;DHT22;9651;49.138;8.900;2022-11-21T12:17:16;11.40;99.90
19037;DHT22;9651;49.138;8.900;2022-11-21T12:21:21;11.60;99.90
19037;DHT22;9651;49.138;8.900;2022-11-21T12:25:27;11.80;99.90
19037;DHT22;9651;49.138;8.900;2022-11-21T12:29:42;11.90;99.90
19037;DHT22;9651;49.138;8.900;2022-11-21T12:33:53;11.80;99.90
19037;DHT22;9651;49.138;8.900;2022-11-21T12:38:07;11.70;99.90
19037;DHT22;9651;49.138;8.900;2022-11-21T12:42:18;11.60;99.90
19037;DHT22;9651;49.138;8.900;2022-11-21T12:46:51;11.40;99.90
19037;DHT22;9651;49.138;8.900;2022-11-21T12:55:43;11.30;99.90
19037;DHT22;9651;49.138;8.900;2022-11-21T12:59:55;11.30;99.90
19037;DHT22;9651;49.138;8.900;2022-11-21T13:04:03;11.30;99.90
19037;DHT22;9651;49.138;8.900;2022-11-21T13:08:09;11.20;99.90
19037;DHT22;9651;49.138;8.900;2022-11-21T13:12:17;11.00;99.90
19037;DHT22;9651;49.138;8.900;2022-11-21T13:16:22;11.00;99.90
19037;DHT22;9651;49.138;8.900;2022-11-21T13:20:39;10.90;99.90
19037;DHT22;9651;49.138;8.900;2022-11-21T13:24:57;10.90;99.90
19037;DHT22;9651;49.138;8.900;2022-11-21T13:29:07;10.90;99.90
19037;DHT22;9651;49.138;8.900;2022-11-21T13:33:10;11.00;99.90
19037;DHT22;9651;49.138;8.900;2022-11-21T13:38:01;11.00;99.90
19037;DHT22;9651;49.138;8.900;2022-11-21T13:42:05;11.20;99.90
19037;DHT22;9651;49.138;8.900;2022-11-21T13:46:56;11.20;99.90
19037;DHT22;9651;49.138;8.900;2022-11-21T13:51:15;11.20;99.90
19037;DHT22;9651;49.138;8.900;2022-11-21T13:55:40;11.20;99.90
19037;DHT22;9651;49.138;8.900;2022-11-21T14:00:02;11.20;99.90
19037;DHT22;9651;49.138;8.900;2022-11-21T14:04:40;11.10;99.90
19037;DHT22;9651;49.138;8.900;2022-11-21T14:09:13;11.00;99.90
19037;DHT22;9651;49.138;8.900;2022-11-21T14:13:25;11.00;99.90
19037;DHT22;9651;49.138;8.900;2022-11-21T14:17:44;10.80;99.90
19037;DHT22;9651;49.138;8.900;2022-11-21T14:21:46;10.70;99.90
19037;DHT22;9651;49.138;8.900;2022-11-21T14:25:53;10.50;99.90
19037;DHT22;9651;49.138;8.900;2022-11-21T14:29:58;10.30;99.90
19037;DHT22;9651;49.138;8.900;2022-11-21T14:34:00;10.10;99.90
19037;DHT22;9651;49.138;8.900;2022-11-21T14:38:04;9.80;99.90
19037;DHT22;9651;49.138;8.900;2022-11-21T14:42:11;9.50;99.90
19037;DHT22;9651;49.138;8.900;2022-11-21T14:46:19;9.40;99.90
19037;DHT22;9651;49.138;8.900;2022-11-21T14:50:23;9.40;99.90
19037;DHT22;9651;49.138;8.900;2022-11-21T14:54:29;9.40;99.90
19037;DHT22;9651;49.138;8.900;2022-11-21T14:58:32;9.30;99.90
19037;DHT22;9651;49.138;8.900;2022-11-21T15:02:37;9.20;99.90
19037;DHT22;9651;49.138;8.900;2022-11-21T15:06:40;9.10;99.90
19037;DHT22;9651;49.138;8.900;2022-11-21T15:10:43;9.10;99.90
19037;DHT22;9651;49.138;8.900;2022-11-21T15:14:48;9.00;99.90
19037;DHT22;9651;49.138;8.900;2022-11-21T15:18:52;8.90;99.90
19037;DHT22;9651;49.138;8.900;2022-11-21T15:22:55;8.80;99.90
19037;DHT22;9651;49.138;8.900;2022-11-21T15:26:57;8.70;99.90
19037;DHT22;9651;49.138;8.900;2022-11-21T15:31:16;8.50;99.90
19037;DHT22;9651;49.138;8.900;2022-11-21T15:35:47;8.50;99.90
19037;DHT22;9651;49.138;8.900;2022-11-21T15:39:52;8.40;99.90
19037;DHT22;9651;49.138;8.900;2022-11-21T15:43:55;8.40;99.90
19037;DHT22;9651;49.138;8.900;2022-11-21T15:48:15;8.30;99.90
19037;DHT22;9651;49.138;8.900;2022-11-21T15:52:21;8.20;99.90
19037;DHT22;9651;49.138;8.900;2022-11-21T15:56:23;8.10;99.90
19037;DHT22;9651;49.138;8.900;2022-11-21T16:00:25;8.00;99.90
19037;DHT22;9651;49.138;8.900;2022-11-21T16:04:27;8.00;99.90
19037;DHT22;9651;49.138;8.900;2022-11-21T16:08:30;7.90;99.90
19037;DHT22;9651;49.138;8.900;2022-11-21T16:12:32;7.90;99.90
19037;DHT22;9651;49.138;8.900;2022-11-21T16:16:38;7.80;99.90
19037;DHT22;9651;49.138;8.900;2022-11-21T16:20:40;7.70;99.90
19037;DHT22;9651;49.138;8.900;2022-11-21T16:24:43;7.60;99.90
19037;DHT22;9651;49.138;8.900;2022-11-21T16:28:45;7.40;99.90
19037;DHT22;9651;49.138;8.900;2022-11-21T16:32:47;7.30;99.90
19037;DHT22;9651;49.138;8.900;2022-11-21T16:36:50;7.30;99.90
19037;DHT22;9651;49.138;8.900;2022-11-21T16:40:54;7.30;99.90
19037;DHT22;9651;49.138;8.900;2022-11-21T16:44:56;7.30;99.90
19037;DHT22;9651;49.138;8.900;2022-11-21T16:48:59;7.20;99.90
19037;DHT22;9651;49.138;8.900;2022-11-21T16:53:01;7.10;99.90
19037;DHT22;9651;49.138;8.900;2022-11-21T16:57:05;7.10;99.90
19037;DHT22;9651;49.138;8.900;2022-11-21T17:01:08;7.10;99.90
19037;DHT22;9651;49.138;8.900;2022-11-21T17:05:11;7.10;99.90
19037;DHT22;9651;49.138;8.900;2022-11-21T17:09:14;7.10;99.90
19037;DHT22;9651;49.138;8.900;2022-11-21T17:13:18;7.00;99.90
19037;DHT22;9651;49.138;8.900;2022-11-21T17:17:20;7.00;99.90
19037;DHT22;9651;49.138;8.900;2022-11-21T17:21:22;6.90;99.90
19037;DHT22;9651;49.138;8.900;2022-11-21T17:25:24;6.90;99.90
19037;DHT22;9651;49.138;8.900;2022-11-21T17:29:28;6.90;99.90
19037;DHT22;9651;49.138;8.900;2022-11-21T17:33:30;6.90;99.90
19037;DHT22;9651;49.138;8.900;2022-11-21T17:37:32;6.80;99.90
19037;DHT22;9651;49.138;8.900;2022-11-21T17:41:34;6.80;99.90
19037;DHT22;9651;49.138;8.900;2022-11-21T17:45:37;6.70;99.90
19037;DHT22;9651;49.138;8.900;2022-11-21T17:49:38;6.70;99.90
19037;DHT22;9651;49.138;8.900;2022-11-21T17:53:42;6.60;99.90
19037;DHT22;9651;49.138;8.900;2022-11-21T17:57:44;6.50;99.90
19037;DHT22;9651;49.138;8.900;2022-11-21T18:01:47;6.50;99.90
19037;DHT22;9651;49.138;8.900;2022-11-21T18:05:58;6.50;99.90
19037;DHT22;9651;49.138;8.900;2022-11-21T18:10:00;6.50;99.90
19037;DHT22;9651;49.138;8.900;2022-11-21T18:14:03;6.50;99.90
19037;DHT22;9651;49.138;8.900;2022-11-21T18:18:06;6.50;99.90
19037;DHT22;9651;49.138;8.900;2022-11-21T18:22:08;6.60;99.90
19037;DHT22;9651;49.138;8.900;2022-11-21T18:26:12;6.70;99.90
19037;DHT22;9651;49.138;8.900;2022-11-21T18:30:14;6.70;99.90
19037;DHT22;9651;49.138;8.900;2022-11-21T18:34:18;6.70;99.90
19037;DHT22;9651;49.138;8.900;2022-11-21T18:38:20;6.80;99.90
19037;DHT22;9651;49.138;8.900;2022-11-21T18:42:21;6.80;99.90
19037;DHT22;9651;49.138;8.900;2022-11-21T18:46:25;6.90;99.90
19037;DHT22;9651;49.138;8.900;2022-11-21T18:50:28;6.90;99.90
19037;DHT22;9651;49.138;8.900;2022-11-21T18:54:32;7.00;99.90
19037;DHT22;9651;49.138;8.900;2022-11-21T18:58:35;7.00;99.90
19037;DHT22;9651;49.138;8.900;2022-11-21T19:02:36;7.00;99.90
19037;DHT22;9651;49.138;8.900;2022-11-21T19:06:40;7.10;99.90
19037;DHT22;9651;49.138;8.900;2022-11-21T19:10:41;7.20;99.90
19037;DHT22;9651;49.138;8.900;2022-11-21T19:14:43;7.10;99.90
19037;DHT22;9651;49.138;8.900;2022-11-21T19:18:46;7.10;99.90
19037;DHT22;9651;49.138;8.900;2022-11-21T19:22:51;7.10;99.90
19037;DHT22;9651;49.138;8.900;2022-11-21T19:26:53;7.00;99.90
19037;DHT22;9651;49.138;8.900;2022-11-21T19:30:55;7.00;99.90
19037;DHT22;9651;49.138;8.900;2022-11-21T19:34:57;6.90;99.90
19037;DHT22;9651;49.138;8.900;2022-11-21T19:39:00;6.80;99.90
19037;DHT22;9651;49.138;8.900;2022-11-21T19:43:02;6.80;99.90
19037;DHT22;9651;49.138;8.900;2022-11-21T19:47:04;6.80;99.90
19037;DHT22;9651;49.138;8.900;2022-11-21T19:51:06;6.80;99.90
19037;DHT22;9651;49.138;8.900;2022-11-21T19:55:09;6.80;99.90
19037;DHT22;9651;49.138;8.900;2022-11-21T19:59:12;6.80;99.90
19037;DHT22;9651;49.138;8.900;2022-11-21T20:03:14;6.90;99.90
19037;DHT22;9651;49.138;8.900;2022-11-21T20:07:17;6.90;99.90
19037;DHT22;9651;49.138;8.900;2022-11-21T20:11:21;6.90;99.90
19037;DHT22;9651;49.138;8.900;2022-11-21T20:15:23;7.00;99.90
19037;DHT22;9651;49.138;8.900;2022-11-21T20:19:25;7.00;99.90
19037;DHT22;9651;49.138;8.900;2022-11-21T20:23:27;7.00;99.90
19037;DHT22;9651;49.138;8.900;2022-11-21T20:27:31;7.00;99.90
19037;DHT22;9651;49.138;8.900;2022-11-21T20:31:34;7.00;99.90
19037;DHT22;9651;49.138;8.900;2022-11-21T20:35:36;7.00;99.90
19037;DHT22;9651;49.138;8.900;2022-11-21T20:39:39;7.00;99.90
19037;DHT22;9651;49.138;8.900;2022-11-21T20:43:42;7.00;99.90
19037;DHT22;9651;49.138;8.900;2022-11-21T20:47:44;7.00;99.90
19037;DHT22;9651;49.138;8.900;2022-11-21T20:51:46;7.00;99.90
19037;DHT22;9651;49.138;8.900;2022-11-21T20:55:49;7.00;99.90
19037;DHT22;9651;49.138;8.900;2022-11-21T20:59:52;7.00;99.90
19037;DHT22;9651;49.138;8.900;2022-11-21T21:03:54;7.00;99.90
19037;DHT22;9651;49.138;8.900;2022-11-21T21:07:56;7.00;99.90
19037;DHT22;9651;49.138;8.900;2022-11-21T21:11:58;7.10;99.90
19037;DHT22;9651;49.138;8.900;2022-11-21T21:16:06;7.10;99.90
19037;DHT22;9651;49.138;8.900;2022-11-21T21:20:09;7.10;99.90
19037;DHT22;9651;49.138;8.900;2022-11-21T21:24:12;7.00;99.90
19037;DHT22;9651;49.138;8.900;2022-11-21T21:28:14;7.10;99.90
19037;DHT22;9651;49.138;8.900;2022-11-21T21:32:17;7.10;99.90
19037;DHT22;9651;49.138;8.900;2022-11-21T21:36:21;7.10;99.90
19037;DHT22;9651;49.138;8.900;2022-11-21T21:40:23;7.10;99.90
19037;DHT22;9651;49.138;8.900;2022-11-21T21:44:25;7.10;99.90
19037;DHT22;9651;49.138;8.900;2022-11-21T21:48:28;7.10;99.90
19037;DHT22;9651;49.138;8.900;2022-11-21T21:52:30;7.10;99.90
19037;DHT22;9651;49.138;8.900;2022-11-21T21:56:32;7.20;99.90
19037;DHT22;9651;49.138;8.900;2022-11-21T22:00:34;7.20;99.90
19037;DHT22;9651;49.138;8.900;2022-11-21T22:04:37;7.20;99.90
19037;DHT22;9651;49.138;8.900;2022-11-21T22:08:40;7.20;99.90
19037;DHT22;9651;49.138;8.900;2022-11-21T22:12:42;7.20;99.90
19037;DHT22;9651;49.138;8.900;2022-11-21T22:16:47;7.20;99.90
19037;DHT22;9651;49.138;8.900;2022-11-21T22:20:53;7.20;99.90
19037;DHT22;9651;49.138;8.900;2022-11-21T22:24:55;7.10;99.90
19037;DHT22;9651;49.138;8.900;2022-11-21T22:28:57;7.10;99.90
19037;DHT22;9651;49.138;8.900;2022-11-21T22:32:58;7.10;99.90
19037;DHT22;9651;49.138;8.900;2022-11-21T22:37:02;7.10;99.90
19037;DHT22;9651;49.138;8.900;2022-11-21T22:41:05;7.10;99.90
19037;DHT22;9651;49.138;8.900;2022-11-21T22:45:08;7.00;99.90
19037;DHT22;9651;49.138;8.900;2022-11-21T22:49:10;7.00;99.90
19037;DHT22;9651;49.138;8.900;2022-11-21T22:53:13;7.00;99.90
19037;DHT22;9651;49.138;8.900;2022-11-21T22:57:15;7.00;99.90
19037;DHT22;9651;49.138;8.900;2022-11-21T23:01:18;6.90;99.90
19037;DHT22;9651;49.138;8.900;2022-11-21T23:05:20;6.80;99.90
19037;DHT22;9651;49.138;8.900;2022-11-21T23:09:23;6.80;99.90
19037;DHT22;9651;49.138;8.900;2022-11-21T23:13:25;6.80;99.90
19037;DHT22;9651;49.138;8.900;2022-11-21T23:17:27;6.90;99.90
19037;DHT22;9651;49.138;8.900;2022-11-21T23:21:29;6.90;99.90
19037;DHT22;9651;49.138;8.900;2022-11-21T23:25:32;6.90;99.90
19037;DHT22;9651;49.138;8.900;2022-11-21T23:29:34;6.90;99.90
19037;DHT22;9651;49.138;8.900;2022-11-21T23:33:36;6.90;99.90
19037;DHT22;9651;49.138;8.900;2022-11-21T23:37:38;6.90;99.90
19037;DHT22;9651;49.138;8.900;2022-11-21T23:41:41;6.90;99.90
19037;DHT22;9651;49.138;8.900;2022-11-21T23:45:43;6.90;99.90
19037;DHT22;9651;49.138;8.900;2022-11-21T23:49:45;6.90;99.90
19037;DHT22;9651;49.138;8.900;2022-11-21T23:53:47;6.90;99.90
19037;DHT22;9651;49.138;8.900;2022-11-21T23:57:50;6.90;99.90
